Time;durP1;ratioP1;P1;durP2;ratioP2;P2;SDS_P1;SDS_P2;PMS_P1;PMS_P2;Temp;Humidity;BMP_temperature;BMP_pressure;BME280_temperature;BME280_humidity;BME280_pressure;Samples;Min_cycle;Max_cycle;Signal;HPM_P1;HPM_P2
2023/09/27 00:00:23;;;;;;;1.83;1.73;;;;;;;16.04;100.00;101524.22;4877339;29;20553;-71
2023/09/27 00:02:54;;;;;;;2.13;1.97;;;;;;;16.03;100.00;101522.53;4879492;29;20434;-71
2023/09/27 00:05:23;;;;;;;1.40;1.00;;;;;;;16.06;100.00;101522.13;4876321;29;20832;-72
2023/09/27 00:07:54;;;;;;;0.80;0.50;;;;;;;16.10;100.00;101514.31;4879713;29;20874;-71
2023/09/27 00:10:25;;;;;;;1.40;1.07;;;;;;;16.08;100.00;101519.16;4881424;29;20413;-71
2023/09/27 00:12:56;;;;;;;2.07;1.20;;;;;;;16.11;100.00;101529.63;4878779;29;20875;-71
2023/09/27 00:15:27;;;;;;;0.80;0.60;;;;;;;16.13;100.00;101527.50;4880586;29;20448;-72
2023/09/27 00:17:56;;;;;;;4.00;2.30;;;;;;;15.96;100.00;101532.69;4879006;29;20436;-71
2023/09/27 00:20:26;;;;;;;1.70;1.50;;;;;;;15.95;100.00;101533.75;4878625;29;20482;-71
2023/09/27 00:22:58;;;;;;;2.53;1.40;;;;;;;15.83;100.00;101531.97;4877017;29;20459;-71
2023/09/27 00:25:29;;;;;;;1.50;1.37;;;;;;;15.80;100.00;101532.41;4877938;29;20512;-71
2023/09/27 00:27:58;;;;;;;1.10;0.80;;;;;;;15.78;100.00;101529.88;4876680;29;20808;-71
2023/09/27 00:30:28;;;;;;;1.10;1.00;;;;;;;15.74;100.00;101528.66;4879055;29;20421;-71
2023/09/27 00:32:59;;;;;;;2.37;1.40;;;;;;;15.76;100.00;101532.00;4880410;29;20445;-71
2023/09/27 00:35:28;;;;;;;1.50;1.10;;;;;;;15.74;100.00;101530.53;4882255;29;20985;-72
2023/09/27 00:37:59;;;;;;;1.30;0.93;;;;;;;15.76;100.00;101525.72;4876783;29;20437;-72
2023/09/27 00:40:31;;;;;;;0.93;0.80;;;;;;;15.74;100.00;101517.72;4878027;29;20439;-71
2023/09/27 00:43:00;;;;;;;2.00;1.03;;;;;;;15.72;100.00;101519.88;4885119;29;20522;-72
2023/09/27 00:45:30;;;;;;;1.67;1.57;;;;;;;15.72;100.00;101519.88;4877509;29;20441;-72
2023/09/27 00:48:00;;;;;;;5.57;1.30;;;;;;;15.80;100.00;101524.22;4878817;29;20452;-71
2023/09/27 00:50:30;;;;;;;1.20;0.70;;;;;;;15.76;100.00;101521.09;4876485;29;20538;-71
2023/09/27 00:53:00;;;;;;;1.53;1.40;;;;;;;15.80;100.00;101522.31;4877874;29;20487;-71
2023/09/27 00:55:32;;;;;;;3.97;1.10;;;;;;;15.65;100.00;101524.53;4876701;29;20433;-71
2023/09/27 00:58:03;;;;;;;2.77;1.80;;;;;;;15.74;100.00;101522.34;4875435;29;20795;-72
2023/09/27 01:00:33;;;;;;;2.33;1.00;;;;;;;15.62;100.00;101522.25;4873374;29;20446;-72
2023/09/27 01:03:06;;;;;;;3.90;1.37;;;;;;;15.49;100.00;101522.31;4877005;29;20493;-71
2023/09/27 01:05:35;;;;;;;1.20;1.10;;;;;;;15.58;100.00;101515.56;4882308;29;20446;-71
2023/09/27 01:08:06;;;;;;;1.30;0.77;;;;;;;15.54;100.00;101515.16;4878682;29;20513;-71
2023/09/27 01:10:38;;;;;;;1.37;1.07;;;;;;;15.40;100.00;101516.25;4877476;29;20438;-71
2023/09/27 01:13:09;;;;;;;1.93;1.00;;;;;;;15.30;100.00;101510.44;4879151;29;20998;-71
2023/09/27 01:15:38;;;;;;;1.50;1.40;;;;;;;15.35;100.00;101507.06;4875849;29;20463;-71
2023/09/27 01:18:08;;;;;;;4.17;2.07;;;;;;;15.25;100.00;101512.97;4878781;29;20428;-71
2023/09/27 01:24:56;;;;;;;1.97;1.87;;;;;;;15.02;100.00;101521.69;4876717;29;20461;-71
2023/09/27 01:27:27;;;;;;;3.10;1.10;;;;;;;15.17;100.00;101524.97;4878386;29;20413;-71
2023/09/27 01:29:57;;;;;;;9.00;1.57;;;;;;;15.10;100.00;101521.44;4876011;29;20565;-70
2023/09/27 01:32:27;;;;;;;1.57;0.93;;;;;;;15.31;100.00;101533.09;4876074;29;20490;-70
2023/09/27 01:34:58;;;;;;;1.07;0.83;;;;;;;15.08;100.00;101520.84;4878468;29;20451;-70
2023/09/27 01:37:28;;;;;;;6.03;5.47;;;;;;;14.98;100.00;101517.72;4882271;29;20431;-71
2023/09/27 01:40:00;;;;;;;4.90;1.37;;;;;;;14.91;100.00;101516.09;4876756;29;20477;-70
2023/09/27 01:42:29;;;;;;;1.93;1.73;;;;;;;15.04;100.00;101522.31;4876065;29;20532;-70
2023/09/27 01:44:59;;;;;;;1.13;0.60;;;;;;;14.91;100.00;101522.34;4878450;29;20482;-70
2023/09/27 01:47:29;;;;;;;1.77;0.80;;;;;;;14.86;100.00;101519.47;4876460;29;20422;-72
2023/09/27 01:49:59;;;;;;;1.83;1.30;;;;;;;14.99;100.00;101524.88;4877100;29;20510;-72
2023/09/27 01:52:29;;;;;;;1.63;0.80;;;;;;;14.89;100.00;101518.19;4871453;29;20450;-72
2023/09/27 01:55:00;;;;;;;1.60;1.37;;;;;;;14.90;100.00;101514.41;4877034;29;20441;-72
2023/09/27 01:57:30;;;;;;;0.97;0.63;;;;;;;14.77;100.00;101520.72;4876595;29;20434;-72
2023/09/27 01:59:59;;;;;;;3.30;1.23;;;;;;;14.73;100.00;101524.94;4875880;29;20535;-71
2023/09/27 02:02:29;;;;;;;0.80;0.60;;;;;;;14.80;100.00;101520.31;4869328;29;21011;-72
2023/09/27 02:04:59;;;;;;;1.87;1.40;;;;;;;14.65;100.00;101520.56;4874389;29;20470;-69
2023/09/27 02:07:29;;;;;;;2.03;1.83;;;;;;;14.65;100.00;101512.41;4873232;29;20423;-71
2023/09/27 02:10:00;;;;;;;2.43;0.87;;;;;;;14.65;100.00;101512.41;4877791;29;20469;-72
2023/09/27 02:12:29;;;;;;;4.93;1.77;;;;;;;14.65;100.00;101506.13;4877732;29;20865;-71
2023/09/27 02:14:59;;;;;;;2.70;1.27;;;;;;;14.62;100.00;101507.38;4876080;29;20470;-72
2023/09/27 02:17:29;;;;;;;1.07;0.83;;;;;;;14.59;100.00;101506.97;4879339;29;20881;-71
2023/09/27 02:20:00;;;;;;;0.90;0.60;;;;;;;14.68;100.00;101505.69;4869629;29;20449;-72
2023/09/27 02:22:30;;;;;;;5.33;2.80;;;;;;;14.69;100.00;101505.47;4877895;29;20925;-72
2023/09/27 02:25:02;;;;;;;1.47;0.63;;;;;;;14.77;100.00;101504.38;4878856;29;20418;-71
2023/09/27 02:27:31;;;;;;;0.80;0.50;;;;;;;14.74;100.00;101518.44;4876006;29;20467;-72
2023/09/27 02:30:01;;;;;;;0.90;0.80;;;;;;;14.76;100.00;101516.38;4872795;29;20432;-71
2023/09/27 02:32:31;;;;;;;1.20;1.10;;;;;;;14.96;100.00;101513.56;4876535;29;20554;-72
2023/09/27 02:35:00;;;;;;;2.07;1.17;;;;;;;14.79;100.00;101518.66;4876481;29;20921;-71
2023/09/27 02:37:30;;;;;;;2.13;0.90;;;;;;;14.72;100.00;101526.81;4875269;29;20441;-72
2023/09/27 02:40:11;;;;;;;1.30;1.03;;;;;;;14.70;100.00;101530.84;4874562;29;20452;-71
2023/09/27 02:42:44;;;;;;;3.27;1.00;;;;;;;14.77;100.00;101528.91;4870411;29;20434;-72
2023/09/27 02:45:14;;;;;;;0.83;0.60;;;;;;;14.83;100.00;101530.78;4874523;29;20430;-71
2023/09/27 02:47:46;;;;;;;1.27;1.03;;;;;;;14.67;100.00;101531.25;4873420;29;20434;-72
2023/09/27 02:50:16;;;;;;;1.77;0.77;;;;;;;14.74;100.00;101524.75;4876284;29;20924;-71
2023/09/27 02:52:46;;;;;;;1.47;1.00;;;;;;;14.97;100.00;101528.84;4880668;29;20797;-71
2023/09/27 02:55:17;;;;;;;2.60;1.73;;;;;;;14.75;100.00;101536.47;4882637;29;20506;-72
2023/09/27 02:57:50;;;;;;;1.00;0.90;;;;;;;14.69;100.00;101542.78;4877138;29;20496;-72
2023/09/27 03:00:26;;;;;;;1.67;0.80;;;;;;;14.64;100.00;101543.41;4881380;29;20481;-72
2023/09/27 03:02:57;;;;;;;1.30;0.63;;;;;;;15.09;100.00;101540.75;4874985;29;20532;-71
2023/09/27 03:05:28;;;;;;;4.30;3.07;;;;;;;14.78;100.00;101533.31;4877861;29;20453;-72
2023/09/27 03:07:58;;;;;;;0.90;0.70;;;;;;;14.74;100.00;101537.53;4873318;29;20507;-72
2023/09/27 03:10:29;;;;;;;0.90;0.60;;;;;;;14.50;100.00;101530.03;4878146;29;20443;-72
2023/09/27 03:12:59;;;;;;;1.10;0.77;;;;;;;14.40;100.00;101518.75;4875064;29;20515;-71
2023/09/27 03:15:31;;;;;;;2.37;2.17;;;;;;;14.37;100.00;101519.19;4879487;29;20460;-70
2023/09/27 03:18:00;;;;;;;2.27;1.90;;;;;;;14.35;100.00;101517.47;4882390;29;20531;-70
2023/09/27 03:20:31;;;;;;;2.80;2.60;;;;;;;14.41;100.00;101520.41;4878487;29;20455;-71
2023/09/27 03:23:02;;;;;;;1.00;0.90;;;;;;;14.55;100.00;101513.91;4879439;29;20430;-71
2023/09/27 03:25:34;;;;;;;1.73;1.57;;;;;;;14.44;100.00;101503.63;4879694;29;20459;-71
2023/09/27 03:28:04;;;;;;;1.10;0.93;;;;;;;14.42;100.00;101492.16;4878828;29;20561;-71
2023/09/27 03:30:34;;;;;;;2.07;1.97;;;;;;;14.45;100.00;101497.16;4879209;29;20874;-71
2023/09/27 03:33:05;;;;;;;1.30;1.20;;;;;;;14.62;100.00;101510.09;4882944;29;20450;-70
2023/09/27 03:35:36;;;;;;;0.90;0.80;;;;;;;14.95;100.00;101511.88;4867142;29;20455;-71
2023/09/27 03:38:06;;;;;;;1.13;1.03;;;;;;;14.63;100.00;101503.59;4877674;29;20461;-72
2023/09/27 03:40:42;;;;;;;3.33;1.17;;;;;;;14.41;100.00;101498.63;4884170;29;20883;-71
2023/09/27 03:43:11;;;;;;;0.90;0.73;;;;;;;14.46;100.00;101491.50;4874722;29;20450;-71
2023/09/27 03:45:41;;;;;;;1.03;0.90;;;;;;;14.41;100.00;101487.75;4876911;29;21008;-71
2023/09/27 03:48:11;;;;;;;2.40;0.90;;;;;;;14.49;100.00;101501.13;4877677;29;20494;-71
2023/09/27 03:50:41;;;;;;;2.47;1.10;;;;;;;14.51;100.00;101520.81;4877959;29;20475;-71
2023/09/27 03:53:10;;;;;;;0.83;0.60;;;;;;;14.52;100.00;101523.34;4878332;29;20452;-72
2023/09/27 03:55:42;;;;;;;2.63;1.60;;;;;;;14.57;100.00;101518.06;4877918;29;20459;-72
2023/09/27 03:58:12;;;;;;;0.80;0.50;;;;;;;14.42;100.00;101524.81;4878288;29;20452;-71
2023/09/27 04:00:41;;;;;;;1.17;0.70;;;;;;;14.32;100.00;101512.44;4878580;29;20457;-72
2023/09/27 04:03:11;;;;;;;1.67;1.07;;;;;;;14.29;100.00;101510.13;4880416;29;20489;-72
2023/09/27 04:05:41;;;;;;;1.70;1.60;;;;;;;14.30;100.00;101508.25;4880654;29;20466;-72
2023/09/27 04:08:11;;;;;;;0.90;0.60;;;;;;;14.53;100.00;101511.38;4878934;29;20796;-72
2023/09/27 04:10:42;;;;;;;0.80;0.63;;;;;;;14.47;100.00;101514.13;4878804;29;20479;-72
2023/09/27 04:13:11;;;;;;;2.47;2.37;;;;;;;14.52;100.00;101522.50;4878850;29;20447;-73
2023/09/27 04:15:41;;;;;;;2.50;1.60;;;;;;;14.56;100.00;101519.13;4878208;29;20448;-72
2023/09/27 04:18:10;;;;;;;1.10;0.87;;;;;;;14.46;100.00;101520.63;4880209;29;20552;-71
2023/09/27 04:20:42;;;;;;;1.80;1.67;;;;;;;14.34;100.00;101525.84;4879707;29;20495;-72
2023/09/27 04:23:12;;;;;;;1.07;0.97;;;;;;;14.55;100.00;101532.97;4880879;29;20813;-72
2023/09/27 04:25:43;;;;;;;1.00;0.80;;;;;;;14.45;100.00;101538.00;4881939;29;20452;-72
2023/09/27 04:28:13;;;;;;;1.03;0.93;;;;;;;14.49;100.00;101542.81;4879664;29;20471;-72
2023/09/27 04:30:42;;;;;;;3.13;1.10;;;;;;;14.41;100.00;101553.94;4881662;29;20569;-72
2023/09/27 04:33:13;;;;;;;1.77;1.47;;;;;;;14.30;100.00;101560.81;4880659;29;20511;-72
2023/09/27 04:35:43;;;;;;;1.00;0.90;;;;;;;14.14;100.00;101561.22;4880132;29;20527;-72
2023/09/27 04:38:13;;;;;;;1.53;1.43;;;;;;;14.17;100.00;101558.09;4880711;29;20434;-71
2023/09/27 04:40:44;;;;;;;1.33;1.17;;;;;;;14.05;100.00;101564.38;4880234;29;20544;-72
2023/09/27 04:43:15;;;;;;;0.90;0.70;;;;;;;13.98;100.00;101569.81;4879857;29;20435;-71
2023/09/27 04:45:45;;;;;;;1.13;0.70;;;;;;;13.99;100.00;101566.03;4870153;29;20453;-72
2023/09/27 04:48:15;;;;;;;1.80;0.90;;;;;;;13.96;100.00;101571.91;4881783;29;20479;-71
2023/09/27 04:50:45;;;;;;;0.90;0.80;;;;;;;14.01;100.00;101568.56;4879549;29;20838;-72
2023/09/27 04:53:15;;;;;;;0.90;0.70;;;;;;;14.03;100.00;101561.88;4881747;29;20434;-72
2023/09/27 04:55:49;;;;;;;0.90;0.53;;;;;;;13.97;100.00;101562.72;4879234;29;20553;-72
2023/09/27 04:58:19;;;;;;;1.13;1.03;;;;;;;13.94;100.00;101568.56;4880919;29;20786;-72
2023/09/27 05:00:49;;;;;;;2.57;2.37;;;;;;;13.99;100.00;101571.47;4861324;29;21015;-73
2023/09/27 05:03:20;;;;;;;0.80;0.60;;;;;;;13.99;100.00;101576.13;4876742;29;20484;-70
2023/09/27 05:05:49;;;;;;;0.80;0.50;;;;;;;13.96;100.00;101576.50;4878144;29;20414;-70
2023/09/27 05:08:20;;;;;;;1.27;1.10;;;;;;;14.13;100.00;101588.69;4875156;29;20518;-73
2023/09/27 05:10:51;;;;;;;1.37;1.10;;;;;;;14.07;100.00;101592.22;4878596;29;20801;-71
2023/09/27 05:13:21;;;;;;;1.33;1.23;;;;;;;14.00;100.00;101589.50;4877986;29;20461;-72
2023/09/27 05:15:52;;;;;;;1.00;0.70;;;;;;;13.97;100.00;101603.53;4877689;29;20814;-72
2023/09/27 05:18:22;;;;;;;2.83;1.20;;;;;;;14.02;100.00;101602.91;4880105;29;20529;-71
2023/09/27 05:20:53;;;;;;;1.20;1.10;;;;;;;14.04;100.00;101607.06;4880909;29;20504;-72
2023/09/27 05:23:23;;;;;;;1.50;1.40;;;;;;;14.05;100.00;101602.47;4877354;29;20444;-73
2023/09/27 05:25:54;;;;;;;0.90;0.77;;;;;;;14.08;100.00;101604.78;4877081;29;20589;-73
2023/09/27 05:28:23;;;;;;;2.07;0.80;;;;;;;14.08;100.00;101605.63;4879075;29;20495;-72
2023/09/27 05:30:53;;;;;;;3.73;1.00;;;;;;;14.14;100.00;101603.94;4876891;29;20467;-72
2023/09/27 05:33:24;;;;;;;1.00;0.70;;;;;;;14.22;100.00;101614.66;4879175;29;20464;-72
2023/09/27 05:35:54;;;;;;;1.67;1.57;;;;;;;14.29;100.00;101616.31;4884222;29;20547;-71
2023/09/27 05:38:24;;;;;;;1.23;1.13;;;;;;;14.31;100.00;101627.84;4877791;29;20514;-72
2023/09/27 05:40:55;;;;;;;2.10;2.00;;;;;;;14.32;100.00;101624.09;4876163;29;20845;-72
2023/09/27 05:43:25;;;;;;;1.80;1.70;;;;;;;14.32;100.00;101626.81;4877266;29;20434;-72
2023/09/27 05:45:56;;;;;;;1.00;0.90;;;;;;;14.28;100.00;101622.00;4879355;29;20422;-70
2023/09/27 05:48:26;;;;;;;1.40;1.20;;;;;;;14.26;100.00;101622.19;4876461;29;20417;-72
2023/09/27 05:50:56;;;;;;;1.20;1.10;;;;;;;14.18;100.00;101630.56;4878111;29;20447;-70
2023/09/27 05:53:26;;;;;;;0.97;0.80;;;;;;;14.17;100.00;101642.50;4891313;29;20447;-72
2023/09/27 05:55:59;;;;;;;3.20;1.70;;;;;;;14.17;100.00;101639.78;4878696;29;20490;-71
2023/09/27 05:58:29;;;;;;;0.90;0.50;;;;;;;14.21;100.00;101641.03;4878435;29;20417;-71
2023/09/27 06:00:59;;;;;;;1.67;1.53;;;;;;;14.31;100.00;101652.34;4885308;29;20509;-71
2023/09/27 06:03:31;;;;;;;0.80;0.50;;;;;;;14.34;100.00;101657.38;4871931;29;20826;-72
2023/09/27 06:06:03;;;;;;;1.50;1.37;;;;;;;14.44;100.00;101656.97;4879036;29;20540;-70
2023/09/27 06:08:33;;;;;;;1.90;1.10;;;;;;;14.55;100.00;101660.97;4872394;29;20433;-71
2023/09/27 06:11:05;;;;;;;2.50;0.87;;;;;;;14.70;100.00;101664.31;4871035;29;20468;-70
2023/09/27 06:13:35;;;;;;;3.17;1.33;;;;;;;14.82;100.00;101653.59;4876336;29;20414;-71
2023/09/27 06:16:14;;;;;;;2.47;1.30;;;;;;;14.99;100.00;101661.13;4874510;29;21164;-71
2023/09/27 06:18:45;;;;;;;4.77;1.77;;;;;;;15.07;100.00;101663.63;4878966;29;20474;-71
2023/09/27 06:21:14;;;;;;;1.37;1.27;;;;;;;15.17;100.00;101666.75;4877566;29;20479;-72
2023/09/27 06:23:45;;;;;;;2.40;2.20;;;;;;;15.29;100.00;101664.22;4878001;29;20424;-71
2023/09/27 06:26:16;;;;;;;0.90;0.53;;;;;;;15.43;100.00;101659.53;4871153;29;20453;-70
2023/09/27 06:28:47;;;;;;;3.63;1.60;;;;;;;15.58;100.00;101660.16;4873909;29;20435;-72
2023/09/27 06:31:17;;;;;;;2.80;1.67;;;;;;;15.76;100.00;101662.16;4877288;29;20475;-71
2023/09/27 06:33:47;;;;;;;1.30;1.17;;;;;;;15.95;100.00;101658.47;4875419;29;20832;-71
2023/09/27 06:36:20;;;;;;;1.10;0.97;;;;;;;16.13;100.00;101674.13;4874988;29;20562;-72
2023/09/27 06:38:51;;;;;;;1.00;0.87;;;;;;;16.32;100.00;101670.41;4875405;29;20534;-71
2023/09/27 06:41:23;;;;;;;1.87;1.17;;;;;;;16.54;100.00;101679.91;4880484;29;20429;-72
2023/09/27 06:43:56;;;;;;;5.27;1.30;;;;;;;16.77;100.00;101673.88;4878605;29;20462;-71
2023/09/27 06:46:27;;;;;;;1.53;1.23;;;;;;;16.98;100.00;101673.47;4882386;29;20451;-71
2023/09/27 06:49:15;;;;;;;1.90;1.10;;;;;;;17.21;100.00;101672.78;4880786;29;20487;-71
2023/09/27 06:51:45;;;;;;;2.53;1.50;;;;;;;17.38;100.00;101676.59;4879568;29;20542;-72
2023/09/27 06:54:17;;;;;;;1.57;1.33;;;;;;;17.50;100.00;101673.94;4879796;29;20462;-71
2023/09/27 06:56:49;;;;;;;3.53;3.23;;;;;;;17.61;100.00;101679.53;4875842;29;20975;-71
2023/09/27 06:59:21;;;;;;;2.70;1.37;;;;;;;17.73;100.00;101666.72;4879166;29;20840;-71
2023/09/27 07:01:52;;;;;;;3.47;1.53;;;;;;;17.80;100.00;101667.47;4877703;29;20510;-71
2023/09/27 07:04:26;;;;;;;1.00;0.50;;;;;;;17.95;100.00;101668.97;4890828;29;20941;-72
2023/09/27 07:06:57;;;;;;;3.47;3.27;;;;;;;18.02;100.00;101669.69;4879608;29;20433;-71
2023/09/27 07:09:27;;;;;;;1.50;1.40;;;;;;;18.12;100.00;101678.19;4876751;29;20515;-72
2023/09/27 07:12:02;;;;;;;2.60;2.40;;;;;;;18.36;100.00;101670.84;4879246;29;20467;-74
2023/09/27 07:14:36;;;;;;;3.37;2.50;;;;;;;18.54;100.00;101670.84;4876778;29;20479;-72
2023/09/27 07:17:06;;;;;;;2.93;1.93;;;;;;;18.72;100.00;101664.41;4879381;29;20593;-70
2023/09/27 07:19:39;;;;;;;1.77;1.67;;;;;;;18.71;100.00;101669.06;4882152;29;20515;-73
2023/09/27 07:22:13;;;;;;;2.77;1.33;;;;;;;18.84;100.00;101678.94;4862861;29;20845;-72
2023/09/27 07:24:43;;;;;;;1.90;1.43;;;;;;;19.05;100.00;101667.38;4877107;29;20580;-73
2023/09/27 07:27:15;;;;;;;2.93;1.70;;;;;;;19.21;100.00;101669.41;4880922;29;20975;-72
2023/09/27 07:29:47;;;;;;;2.97;1.13;;;;;;;19.28;100.00;101666.50;4881951;29;20422;-72
2023/09/27 07:32:19;;;;;;;3.30;2.40;;;;;;;19.30;100.00;101656.97;4881511;29;20897;-71
2023/09/27 07:34:52;;;;;;;3.60;1.67;;;;;;;19.38;100.00;101650.28;4875140;29;20467;-71
2023/09/27 07:37:26;;;;;;;4.23;3.13;;;;;;;19.54;100.00;101646.81;4880500;29;20555;-70
2023/09/27 07:39:58;;;;;;;2.60;1.80;;;;;;;19.69;100.00;101654.53;4880970;29;21107;-70
2023/09/27 07:42:30;;;;;;;2.60;1.53;;;;;;;19.85;100.00;101653.72;4876552;29;20506;-68
2023/09/27 07:45:00;;;;;;;2.90;2.70;;;;;;;20.13;98.35;101672.13;4877383;29;20482;-69
2023/09/27 07:47:30;;;;;;;2.40;1.67;;;;;;;20.27;96.81;101677.06;4874983;29;20463;-68
2023/09/27 07:50:00;;;;;;;3.77;1.53;;;;;;;20.33;97.32;101678.84;4876488;29;21080;-68
2023/09/27 07:52:30;;;;;;;3.27;3.00;;;;;;;20.45;96.64;101680.69;4874914;29;20475;-68
2023/09/27 07:55:04;;;;;;;2.00;1.73;;;;;;;20.50;96.37;101680.78;4875332;29;20523;-68
2023/09/27 07:57:36;;;;;;;2.33;1.83;;;;;;;20.44;95.98;101679.84;4881443;29;20963;-69
2023/09/27 08:00:09;;;;;;;2.47;2.27;;;;;;;20.44;96.10;101670.78;4881027;29;20839;-69
2023/09/27 08:02:44;;;;;;;2.27;2.07;;;;;;;20.52;95.67;101670.38;4878357;29;20796;-69
2023/09/27 08:05:17;;;;;;;2.30;1.17;;;;;;;20.65;95.67;101670.88;4876703;29;20476;-68
2023/09/27 08:07:48;;;;;;;3.20;1.67;;;;;;;20.81;95.11;101669.22;4878143;29;20442;-70
2023/09/27 08:10:17;;;;;;;2.83;1.80;;;;;;;21.02;93.01;101665.66;4875206;29;20443;-69
2023/09/27 08:12:52;;;;;;;1.57;1.47;;;;;;;21.06;91.19;101666.81;4876475;29;20451;-68
2023/09/27 08:15:22;;;;;;;2.07;1.77;;;;;;;21.23;90.75;101667.66;4876149;29;20472;-68
2023/09/27 08:17:52;;;;;;;7.73;4.67;;;;;;;21.35;89.78;101669.47;4874907;29;20458;-69
2023/09/27 08:20:21;;;;;;;6.60;3.50;;;;;;;21.55;88.59;101676.06;4877540;29;20443;-68
2023/09/27 08:22:51;;;;;;;2.27;1.47;;;;;;;21.58;87.81;101677.50;4876833;29;20444;-69
2023/09/27 08:25:22;;;;;;;2.13;1.93;;;;;;;21.70;86.01;101672.66;4878184;29;20492;-69
2023/09/27 08:27:53;;;;;;;4.77;1.87;;;;;;;21.84;84.92;101673.09;4876561;29;20512;-69
2023/09/27 08:30:23;;;;;;;2.30;1.43;;;;;;;21.88;84.93;101686.09;4880274;29;20476;-69
2023/09/27 08:32:54;;;;;;;3.53;2.27;;;;;;;22.05;83.53;101678.63;4881395;29;20487;-69
2023/09/27 08:35:23;;;;;;;3.77;2.83;;;;;;;22.14;81.91;101673.47;4891143;29;20455;-69
2023/09/27 08:37:54;;;;;;;3.43;2.20;;;;;;;22.07;81.18;101673.66;4873840;29;20479;-69
2023/09/27 08:40:23;;;;;;;4.60;2.70;;;;;;;22.20;79.90;101674.34;4877722;29;20452;-69
2023/09/27 08:42:59;;;;;;;2.93;2.10;;;;;;;22.30;78.20;101675.28;4878068;29;20450;-69
2023/09/27 08:45:33;;;;;;;2.93;1.83;;;;;;;22.36;78.72;101670.66;4875553;29;20451;-68
2023/09/27 08:48:04;;;;;;;3.83;3.40;;;;;;;22.42;78.20;101675.09;4880777;29;20488;-69
2023/09/27 08:50:35;;;;;;;14.03;1.93;;;;;;;22.54;78.55;101673.00;4876900;29;20456;-69
2023/09/27 08:53:05;;;;;;;3.40;1.60;;;;;;;22.66;75.88;101668.13;4874545;29;20451;-68
2023/09/27 08:55:38;;;;;;;3.03;1.57;;;;;;;22.68;75.48;101674.22;4887231;29;20437;-69
2023/09/27 08:58:11;;;;;;;2.60;1.50;;;;;;;22.85;76.27;101674.94;4876652;29;20523;-69
2023/09/27 09:00:41;;;;;;;2.80;2.50;;;;;;;23.03;75.44;101673.69;4878754;29;20985;-70
2023/09/27 09:03:12;;;;;;;3.77;1.87;;;;;;;23.13;75.11;101662.72;4876552;29;20948;-69
2023/09/27 09:05:45;;;;;;;1.43;1.30;;;;;;;23.23;73.61;101673.00;4878704;29;20447;-69
2023/09/27 09:08:15;;;;;;;5.37;2.27;;;;;;;23.32;72.58;101663.09;4883820;29;20472;-69
2023/09/27 09:10:55;;;;;;;2.53;2.23;;;;;;;23.48;71.37;101666.81;4880895;29;20481;-70
2023/09/27 09:13:26;;;;;;;2.13;1.20;;;;;;;23.40;70.87;101671.69;4871722;29;20608;-68
2023/09/27 09:15:57;;;;;;;5.43;1.30;;;;;;;23.53;70.10;101673.16;4892857;29;20973;-69
2023/09/27 09:18:31;;;;;;;2.07;1.83;;;;;;;23.54;70.20;101679.50;4876627;29;20456;-68
2023/09/27 09:21:08;;;;;;;2.90;2.50;;;;;;;23.42;70.27;101671.44;4891406;29;20503;-67
2023/09/27 09:23:39;;;;;;;3.47;2.50;;;;;;;23.46;69.86;101664.28;4877109;29;21229;-68
2023/09/27 09:26:10;;;;;;;2.43;1.63;;;;;;;23.62;68.77;101662.44;4863833;29;20822;-69
2023/09/27 09:28:56;;;;;;;2.53;1.50;;;;;;;23.87;68.20;101661.69;4874281;29;20455;-68
2023/09/27 09:31:28;;;;;;;2.80;1.77;;;;;;;24.13;66.07;101663.41;4874372;29;20537;-70
2023/09/27 09:34:05;;;;;;;2.90;1.43;;;;;;;24.17;64.79;101650.72;4891870;29;20511;-69
2023/09/27 09:36:36;;;;;;;1.30;1.00;;;;;;;24.26;65.36;101662.88;4877039;29;20595;-69
2023/09/27 09:39:08;;;;;;;2.50;1.70;;;;;;;24.34;65.46;101653.22;4873151;29;20555;-69
2023/09/27 09:41:47;;;;;;;3.70;1.90;;;;;;;24.38;64.08;101654.34;4878918;29;20883;-68
2023/09/27 09:44:23;;;;;;;4.03;1.50;;;;;;;24.35;63.82;101652.13;4875268;29;20450;-69
2023/09/27 09:46:53;;;;;;;3.57;2.13;;;;;;;24.43;64.09;101649.63;4877392;29;20458;-69
2023/09/27 09:49:23;;;;;;;3.47;1.50;;;;;;;24.35;63.79;101638.31;4878704;29;20421;-69
2023/09/27 09:51:57;;;;;;;2.90;2.10;;;;;;;24.44;63.56;101642.16;4875506;29;20471;-69
2023/09/27 09:54:36;;;;;;;2.47;2.07;;;;;;;24.58;63.00;101633.03;4875812;29;20461;-69
2023/09/27 09:57:07;;;;;;;2.90;1.20;;;;;;;24.61;60.88;101632.47;4879966;29;20466;-69
2023/09/27 09:59:56;;;;;;;4.07;1.37;;;;;;;24.86;60.52;101633.53;4878956;29;20447;-69
2023/09/27 10:02:32;;;;;;;1.47;1.07;;;;;;;24.98;59.60;101634.91;4890005;29;20506;-69
2023/09/27 10:05:06;;;;;;;2.17;1.27;;;;;;;25.04;58.41;101639.34;4875739;29;20838;-69
2023/09/27 10:07:36;;;;;;;2.90;1.67;;;;;;;25.22;58.84;101620.47;4875868;29;20454;-69
2023/09/27 10:10:06;;;;;;;2.33;1.93;;;;;;;25.23;57.99;101628.47;4882267;29;20428;-69
2023/09/27 10:12:38;;;;;;;4.27;1.80;;;;;;;25.18;57.44;101616.59;4878955;29;20510;-69
2023/09/27 10:15:11;;;;;;;1.53;0.80;;;;;;;25.18;55.69;101619.34;4878637;29;20451;-68
2023/09/27 10:17:40;;;;;;;2.43;1.33;;;;;;;25.32;56.68;101614.91;4879196;29;20602;-69
2023/09/27 10:20:14;;;;;;;2.53;1.53;;;;;;;25.44;56.04;101618.16;4882253;29;21005;-69
2023/09/27 10:22:45;;;;;;;2.30;1.40;;;;;;;25.49;56.33;101616.19;4885974;29;20434;-69
2023/09/27 10:25:34;;;;;;;1.83;1.70;;;;;;;25.55;55.28;101608.72;4884400;29;20870;-70
2023/09/27 10:28:12;;;;;;;1.63;1.20;;;;;;;25.48;55.90;101609.00;4878288;29;20455;-69
2023/09/27 10:31:07;;;;;;;6.43;1.77;;;;;;;25.55;56.37;101608.72;4884625;29;20561;-69
2023/09/27 10:33:39;;;;;;;2.13;1.60;;;;;;;25.62;56.24;101613.94;4866695;29;20468;-68
2023/09/27 10:36:28;;;;;;;1.30;1.10;;;;;;;25.69;56.49;101608.91;4881992;29;20457;-69
2023/09/27 10:39:08;;;;;;;2.27;1.07;;;;;;;25.81;56.80;101612.16;4874595;29;20601;-69
2023/09/27 10:41:48;;;;;;;2.60;1.80;;;;;;;25.91;56.77;101601.00;4877732;29;20531;-69
2023/09/27 10:44:32;;;;;;;4.33;2.03;;;;;;;25.76;56.52;101601.09;4878249;29;20470;-69
2023/09/27 10:47:04;;;;;;;1.73;1.47;;;;;;;25.75;56.28;101600.31;4881955;29;20620;-69
2023/09/27 10:49:38;;;;;;;1.60;1.30;;;;;;;25.85;56.17;101596.63;4880105;29;20475;-69
2023/09/27 10:52:16;;;;;;;1.10;0.60;;;;;;;25.90;56.67;101591.06;4880158;29;20522;-69
2023/09/27 10:54:46;;;;;;;2.70;1.83;;;;;;;25.98;56.13;101590.44;4885287;29;20490;-69
2023/09/27 10:57:17;;;;;;;3.47;3.17;;;;;;;26.15;55.97;101584.47;4883186;29;20467;-69
2023/09/27 10:59:51;;;;;;;2.10;1.43;;;;;;;26.25;55.81;101587.19;4881271;29;20836;-69
2023/09/27 11:02:31;;;;;;;1.80;1.40;;;;;;;26.26;54.96;101586.09;4881608;29;20475;-68
2023/09/27 11:05:00;;;;;;;3.47;1.53;;;;;;;26.23;54.09;101587.50;4876693;29;20451;-69
2023/09/27 11:07:45;;;;;;;1.97;1.10;;;;;;;26.30;53.85;101582.44;4879937;29;20442;-68
2023/09/27 11:10:30;;;;;;;2.10;1.10;;;;;;;26.31;53.89;101578.53;4878680;29;20465;-69
2023/09/27 11:13:11;;;;;;;3.13;1.63;;;;;;;26.39;53.62;101568.75;4879190;29;20457;-69
2023/09/27 11:15:42;;;;;;;1.77;0.87;;;;;;;26.35;53.22;101573.22;4888374;29;20435;-69
2023/09/27 11:18:13;;;;;;;1.60;0.60;;;;;;;26.23;53.71;101565.31;4902389;29;20491;-69
2023/09/27 11:20:43;;;;;;;2.30;1.17;;;;;;;26.28;53.41;101568.03;4899829;29;20539;-70
2023/09/27 11:23:13;;;;;;;1.50;1.00;;;;;;;26.28;52.43;101573.59;4891826;29;20440;-69
2023/09/27 11:25:43;;;;;;;1.40;1.10;;;;;;;26.24;52.50;101569.72;4881999;29;20450;-70
2023/09/27 11:28:18;;;;;;;2.03;1.83;;;;;;;26.43;52.67;101560.69;4897534;29;20503;-69
2023/09/27 11:30:56;;;;;;;1.30;1.17;;;;;;;26.64;51.76;101565.72;4882539;29;20666;-69
2023/09/27 11:33:33;;;;;;;2.90;1.77;;;;;;;26.68;51.00;101571.53;4874090;29;20925;-69
2023/09/27 11:36:06;;;;;;;1.90;1.80;;;;;;;26.74;51.34;101571.19;4882720;29;20439;-68
2023/09/27 11:38:35;;;;;;;1.77;0.80;;;;;;;26.84;50.68;101570.25;4889449;29;20479;-69
2023/09/27 11:41:14;;;;;;;2.27;1.83;;;;;;;26.74;50.62;101568.41;4891621;29;20464;-68
2023/09/27 11:43:45;;;;;;;1.90;1.17;;;;;;;26.68;51.05;101564.03;4905723;29;20543;-69